sensor_id;sensor_type;location;lat;lon;timestamp;temperature;humidity
52024;DHT22;38038;45.922;13.604;2024-03-07T00:00:07;8.40;99.90
52024;DHT22;38038;45.922;13.604;2024-03-07T00:02:44;8.60;99.90
52024;DHT22;38038;45.922;13.604;2024-03-07T00:05:11;8.60;99.90
52024;DHT22;38038;45.922;13.604;2024-03-07T00:07:38;8.70;99.90
52024;DHT22;38038;45.922;13.604;2024-03-07T00:10:05;8.70;99.90
52024;DHT22;38038;45.922;13.604;2024-03-07T00:12:33;8.60;99.90
52024;DHT22;38038;45.922;13.604;2024-03-07T00:15:01;8.60;99.90
52024;DHT22;38038;45.922;13.604;2024-03-07T00:17:27;8.70;99.90
52024;DHT22;38038;45.922;13.604;2024-03-07T00:19:53;8.60;99.90
52024;DHT22;38038;45.922;13.604;2024-03-07T00:22:18;8.70;99.90
52024;DHT22;38038;45.922;13.604;2024-03-07T00:24:44;8.70;99.90
52024;DHT22;38038;45.922;13.604;2024-03-07T00:27:13;8.80;99.90
52024;DHT22;38038;45.922;13.604;2024-03-07T00:29:40;8.70;99.90
52024;DHT22;38038;45.922;13.604;2024-03-07T00:32:06;8.70;99.90
52024;DHT22;38038;45.922;13.604;2024-03-07T00:34:33;8.80;99.90
52024;DHT22;38038;45.922;13.604;2024-03-07T00:36:59;8.70;99.90
52024;DHT22;38038;45.922;13.604;2024-03-07T00:39:25;8.70;99.90
52024;DHT22;38038;45.922;13.604;2024-03-07T00:41:51;8.70;99.90
52024;DHT22;38038;45.922;13.604;2024-03-07T00:44:17;8.60;99.90
52024;DHT22;38038;45.922;13.604;2024-03-07T00:46:43;8.70;99.90
52024;DHT22;38038;45.922;13.604;2024-03-07T00:49:09;8.70;99.90
52024;DHT22;38038;45.922;13.604;2024-03-07T00:51:34;8.80;99.90
52024;DHT22;38038;45.922;13.604;2024-03-07T00:54:00;8.70;99.90
52024;DHT22;38038;45.922;13.604;2024-03-07T00:56:26;8.70;99.90
52024;DHT22;38038;45.922;13.604;2024-03-07T00:58:54;8.80;99.90
52024;DHT22;38038;45.922;13.604;2024-03-07T01:01:19;8.80;99.90
52024;DHT22;38038;45.922;13.604;2024-03-07T01:03:45;8.90;99.90
52024;DHT22;38038;45.922;13.604;2024-03-07T01:06:11;8.90;99.90
52024;DHT22;38038;45.922;13.604;2024-03-07T01:08:37;8.90;99.90
52024;DHT22;38038;45.922;13.604;2024-03-07T01:11:04;8.90;99.90
52024;DHT22;38038;45.922;13.604;2024-03-07T01:13:38;8.90;99.90
52024;DHT22;38038;45.922;13.604;2024-03-07T01:16:04;8.80;99.90
52024;DHT22;38038;45.922;13.604;2024-03-07T01:18:30;8.70;99.90
52024;DHT22;38038;45.922;13.604;2024-03-07T01:20:59;8.60;99.90
52024;DHT22;38038;45.922;13.604;2024-03-07T01:23:25;8.70;99.90
52024;DHT22;38038;45.922;13.604;2024-03-07T01:25:50;8.80;99.90
52024;DHT22;38038;45.922;13.604;2024-03-07T01:28:17;8.70;99.90
52024;DHT22;38038;45.922;13.604;2024-03-07T01:30:43;8.70;99.90
52024;DHT22;38038;45.922;13.604;2024-03-07T01:33:09;8.70;99.90
52024;DHT22;38038;45.922;13.604;2024-03-07T01:35:35;8.60;99.90
52024;DHT22;38038;45.922;13.604;2024-03-07T01:38:01;8.60;99.90
52024;DHT22;38038;45.922;13.604;2024-03-07T01:40:29;8.60;99.90
52024;DHT22;38038;45.922;13.604;2024-03-07T01:42:55;8.50;99.90
52024;DHT22;38038;45.922;13.604;2024-03-07T01:45:20;8.40;99.90
52024;DHT22;38038;45.922;13.604;2024-03-07T01:47:46;8.40;99.90
52024;DHT22;38038;45.922;13.604;2024-03-07T01:50:12;8.50;99.90
52024;DHT22;38038;45.922;13.604;2024-03-07T01:52:40;8.60;99.90
52024;DHT22;38038;45.922;13.604;2024-03-07T01:55:08;8.60;99.90
52024;DHT22;38038;45.922;13.604;2024-03-07T01:57:36;8.60;99.90
52024;DHT22;38038;45.922;13.604;2024-03-07T02:00:02;8.60;99.90
52024;DHT22;38038;45.922;13.604;2024-03-07T02:02:29;8.70;99.90
52024;DHT22;38038;45.922;13.604;2024-03-07T02:04:55;8.70;99.90
52024;DHT22;38038;45.922;13.604;2024-03-07T02:07:21;8.80;99.90
52024;DHT22;38038;45.922;13.604;2024-03-07T02:09:46;8.70;99.90
52024;DHT22;38038;45.922;13.604;2024-03-07T02:12:12;8.70;99.90
52024;DHT22;38038;45.922;13.604;2024-03-07T02:14:38;8.70;99.90
52024;DHT22;38038;45.922;13.604;2024-03-07T02:17:03;8.50;99.90
52024;DHT22;38038;45.922;13.604;2024-03-07T02:19:29;8.50;99.90
52024;DHT22;38038;45.922;13.604;2024-03-07T02:21:57;8.50;99.90
52024;DHT22;38038;45.922;13.604;2024-03-07T02:24:24;8.50;99.90
52024;DHT22;38038;45.922;13.604;2024-03-07T02:26:50;8.40;99.90
52024;DHT22;38038;45.922;13.604;2024-03-07T02:29:16;8.30;99.90
52024;DHT22;38038;45.922;13.604;2024-03-07T02:31:42;8.20;99.90
52024;DHT22;38038;45.922;13.604;2024-03-07T02:34:07;8.10;99.90
52024;DHT22;38038;45.922;13.604;2024-03-07T02:36:33;8.10;99.90
52024;DHT22;38038;45.922;13.604;2024-03-07T02:38:59;8.20;99.90
52024;DHT22;38038;45.922;13.604;2024-03-07T02:41:25;8.20;99.90
52024;DHT22;38038;45.922;13.604;2024-03-07T02:43:51;8.20;99.90
52024;DHT22;38038;45.922;13.604;2024-03-07T02:46:17;8.30;99.90
52024;DHT22;38038;45.922;13.604;2024-03-07T02:48:43;8.30;99.90
52024;DHT22;38038;45.922;13.604;2024-03-07T02:51:09;8.20;99.90
52024;DHT22;38038;45.922;13.604;2024-03-07T02:53:35;8.20;99.90
52024;DHT22;38038;45.922;13.604;2024-03-07T02:56:00;8.10;99.90
52024;DHT22;38038;45.922;13.604;2024-03-07T02:58:26;8.00;99.90
52024;DHT22;38038;45.922;13.604;2024-03-07T03:00:57;8.00;99.90
52024;DHT22;38038;45.922;13.604;2024-03-07T03:03:28;8.10;99.90
52024;DHT22;38038;45.922;13.604;2024-03-07T03:05:57;8.00;99.90
52024;DHT22;38038;45.922;13.604;2024-03-07T03:08:23;8.00;99.90
52024;DHT22;38038;45.922;13.604;2024-03-07T03:10:50;8.10;99.90
52024;DHT22;38038;45.922;13.604;2024-03-07T03:13:17;8.10;99.90
52024;DHT22;38038;45.922;13.604;2024-03-07T03:15:43;7.90;99.90
52024;DHT22;38038;45.922;13.604;2024-03-07T03:18:08;7.80;99.90
52024;DHT22;38038;45.922;13.604;2024-03-07T03:20:35;7.80;99.90
52024;DHT22;38038;45.922;13.604;2024-03-07T03:23:05;7.80;99.90
52024;DHT22;38038;45.922;13.604;2024-03-07T03:25:31;7.80;99.90
52024;DHT22;38038;45.922;13.604;2024-03-07T03:28:04;7.70;99.90
52024;DHT22;38038;45.922;13.604;2024-03-07T03:30:30;7.60;99.90
52024;DHT22;38038;45.922;13.604;2024-03-07T03:32:55;7.60;99.90
52024;DHT22;38038;45.922;13.604;2024-03-07T03:35:21;7.60;99.90
52024;DHT22;38038;45.922;13.604;2024-03-07T03:37:47;7.70;99.90
52024;DHT22;38038;45.922;13.604;2024-03-07T03:40:12;7.80;99.90
52024;DHT22;38038;45.922;13.604;2024-03-07T03:42:39;7.70;99.90
52024;DHT22;38038;45.922;13.604;2024-03-07T03:45:07;7.70;99.90
52024;DHT22;38038;45.922;13.604;2024-03-07T03:47:36;7.60;99.90
52024;DHT22;38038;45.922;13.604;2024-03-07T03:50:03;7.50;99.90
52024;DHT22;38038;45.922;13.604;2024-03-07T03:52:29;7.40;99.90
52024;DHT22;38038;45.922;13.604;2024-03-07T03:54:56;7.30;99.90
52024;DHT22;38038;45.922;13.604;2024-03-07T03:57:22;7.30;99.90
52024;DHT22;38038;45.922;13.604;2024-03-07T03:59:48;7.30;99.90
52024;DHT22;38038;45.922;13.604;2024-03-07T04:02:14;7.10;99.90
52024;DHT22;38038;45.922;13.604;2024-03-07T04:04:42;7.10;99.90
52024;DHT22;38038;45.922;13.604;2024-03-07T04:07:08;7.10;99.90
52024;DHT22;38038;45.922;13.604;2024-03-07T04:09:34;7.20;99.90
52024;DHT22;38038;45.922;13.604;2024-03-07T04:11:59;7.20;99.90
52024;DHT22;38038;45.922;13.604;2024-03-07T04:14:26;7.20;99.90
52024;DHT22;38038;45.922;13.604;2024-03-07T04:16:51;7.20;99.90
52024;DHT22;38038;45.922;13.604;2024-03-07T04:19:22;7.20;99.90
52024;DHT22;38038;45.922;13.604;2024-03-07T04:21:47;7.00;99.90
52024;DHT22;38038;45.922;13.604;2024-03-07T04:24:13;7.10;99.90
52024;DHT22;38038;45.922;13.604;2024-03-07T04:26:39;7.20;99.90
52024;DHT22;38038;45.922;13.604;2024-03-07T04:29:07;7.20;99.90
52024;DHT22;38038;45.922;13.604;2024-03-07T04:31:34;7.30;99.90
52024;DHT22;38038;45.922;13.604;2024-03-07T04:34:00;7.40;99.90
52024;DHT22;38038;45.922;13.604;2024-03-07T04:36:25;7.30;99.90
52024;DHT22;38038;45.922;13.604;2024-03-07T04:38:52;7.30;99.90
52024;DHT22;38038;45.922;13.604;2024-03-07T04:41:18;7.30;99.90
52024;DHT22;38038;45.922;13.604;2024-03-07T04:43:44;7.30;99.90
52024;DHT22;38038;45.922;13.604;2024-03-07T04:46:10;7.20;99.90
52024;DHT22;38038;45.922;13.604;2024-03-07T04:48:36;7.20;99.90
52024;DHT22;38038;45.922;13.604;2024-03-07T04:51:02;7.20;99.90
52024;DHT22;38038;45.922;13.604;2024-03-07T04:53:28;7.20;99.90
52024;DHT22;38038;45.922;13.604;2024-03-07T04:55:54;7.10;99.90
52024;DHT22;38038;45.922;13.604;2024-03-07T04:58:20;7.00;99.90
52024;DHT22;38038;45.922;13.604;2024-03-07T05:00:45;6.90;99.90
52024;DHT22;38038;45.922;13.604;2024-03-07T05:03:11;6.90;99.90
52024;DHT22;38038;45.922;13.604;2024-03-07T05:05:37;6.90;99.90
52024;DHT22;38038;45.922;13.604;2024-03-07T05:08:03;6.70;99.90
52024;DHT22;38038;45.922;13.604;2024-03-07T05:10:29;6.60;99.90
52024;DHT22;38038;45.922;13.604;2024-03-07T05:12:56;6.60;99.90
52024;DHT22;38038;45.922;13.604;2024-03-07T05:15:24;6.60;99.90
52024;DHT22;38038;45.922;13.604;2024-03-07T05:17:52;6.50;99.90
52024;DHT22;38038;45.922;13.604;2024-03-07T05:20:18;6.60;99.90
52024;DHT22;38038;45.922;13.604;2024-03-07T05:22:44;6.70;99.90
52024;DHT22;38038;45.922;13.604;2024-03-07T05:25:30;6.70;99.90
52024;DHT22;38038;45.922;13.604;2024-03-07T05:27:56;6.70;99.90
52024;DHT22;38038;45.922;13.604;2024-03-07T05:30:21;6.80;99.90
52024;DHT22;38038;45.922;13.604;2024-03-07T05:32:48;6.80;99.90
52024;DHT22;38038;45.922;13.604;2024-03-07T05:35:14;6.80;99.90
52024;DHT22;38038;45.922;13.604;2024-03-07T05:37:41;6.80;99.90
52024;DHT22;38038;45.922;13.604;2024-03-07T05:40:12;6.80;99.90
52024;DHT22;38038;45.922;13.604;2024-03-07T05:42:38;7.00;99.90
52024;DHT22;38038;45.922;13.604;2024-03-07T05:45:04;7.00;99.90
52024;DHT22;38038;45.922;13.604;2024-03-07T05:47:33;7.00;99.90
52024;DHT22;38038;45.922;13.604;2024-03-07T05:49:59;7.00;99.90
52024;DHT22;38038;45.922;13.604;2024-03-07T05:52:25;7.00;99.90
52024;DHT22;38038;45.922;13.604;2024-03-07T05:54:51;7.10;99.90
52024;DHT22;38038;45.922;13.604;2024-03-07T05:57:16;7.20;99.90
52024;DHT22;38038;45.922;13.604;2024-03-07T05:59:42;7.20;99.90
52024;DHT22;38038;45.922;13.604;2024-03-07T06:02:07;7.10;99.90
52024;DHT22;38038;45.922;13.604;2024-03-07T06:04:33;7.20;99.90
52024;DHT22;38038;45.922;13.604;2024-03-07T06:06:59;7.30;99.90
52024;DHT22;38038;45.922;13.604;2024-03-07T06:09:25;7.30;99.90
52024;DHT22;38038;45.922;13.604;2024-03-07T06:11:52;7.30;99.90
52024;DHT22;38038;45.922;13.604;2024-03-07T06:14:17;7.40;99.90
52024;DHT22;38038;45.922;13.604;2024-03-07T06:16:43;7.50;99.90
52024;DHT22;38038;45.922;13.604;2024-03-07T06:19:09;7.50;99.90
52024;DHT22;38038;45.922;13.604;2024-03-07T06:21:36;7.50;99.90
52024;DHT22;38038;45.922;13.604;2024-03-07T06:24:03;7.50;99.90
52024;DHT22;38038;45.922;13.604;2024-03-07T06:26:33;7.60;99.90
52024;DHT22;38038;45.922;13.604;2024-03-07T06:29:18;7.60;99.90
52024;DHT22;38038;45.922;13.604;2024-03-07T06:31:44;7.70;99.90
52024;DHT22;38038;45.922;13.604;2024-03-07T06:34:13;7.60;99.90
52024;DHT22;38038;45.922;13.604;2024-03-07T06:36:39;7.60;99.90
52024;DHT22;38038;45.922;13.604;2024-03-07T06:39:06;7.60;99.90
52024;DHT22;38038;45.922;13.604;2024-03-07T06:41:33;7.70;99.90
52024;DHT22;38038;45.922;13.604;2024-03-07T06:44:01;7.80;99.90
52024;DHT22;38038;45.922;13.604;2024-03-07T06:46:27;7.80;99.90
52024;DHT22;38038;45.922;13.604;2024-03-07T06:48:52;7.70;99.90
52024;DHT22;38038;45.922;13.604;2024-03-07T06:51:20;7.80;99.90
52024;DHT22;38038;45.922;13.604;2024-03-07T06:53:46;7.90;99.90
52024;DHT22;38038;45.922;13.604;2024-03-07T06:56:15;8.00;99.90
52024;DHT22;38038;45.922;13.604;2024-03-07T06:58:42;8.20;99.90
52024;DHT22;38038;45.922;13.604;2024-03-07T07:01:08;8.20;99.90
52024;DHT22;38038;45.922;13.604;2024-03-07T07:03:36;8.20;99.90
52024;DHT22;38038;45.922;13.604;2024-03-07T07:06:03;8.20;99.90
52024;DHT22;38038;45.922;13.604;2024-03-07T07:08:32;8.30;99.90
52024;DHT22;38038;45.922;13.604;2024-03-07T07:10:58;8.30;99.90
52024;DHT22;38038;45.922;13.604;2024-03-07T07:13:23;8.40;99.90
52024;DHT22;38038;45.922;13.604;2024-03-07T07:15:49;8.50;99.90
52024;DHT22;38038;45.922;13.604;2024-03-07T07:18:15;8.60;99.90
52024;DHT22;38038;45.922;13.604;2024-03-07T07:20:41;8.60;99.90
52024;DHT22;38038;45.922;13.604;2024-03-07T07:23:07;8.70;99.90
52024;DHT22;38038;45.922;13.604;2024-03-07T07:25:33;8.80;99.90
52024;DHT22;38038;45.922;13.604;2024-03-07T07:27:59;8.90;99.90
52024;DHT22;38038;45.922;13.604;2024-03-07T07:30:25;9.00;99.90
52024;DHT22;38038;45.922;13.604;2024-03-07T07:32:53;9.10;99.90
52024;DHT22;38038;45.922;13.604;2024-03-07T07:35:22;9.20;99.90
52024;DHT22;38038;45.922;13.604;2024-03-07T07:37:50;9.30;99.90
52024;DHT22;38038;45.922;13.604;2024-03-07T07:40:19;9.40;99.90
52024;DHT22;38038;45.922;13.604;2024-03-07T07:42:46;9.40;99.90
52024;DHT22;38038;45.922;13.604;2024-03-07T07:45:15;9.50;99.90
52024;DHT22;38038;45.922;13.604;2024-03-07T07:47:45;9.60;99.90
52024;DHT22;38038;45.922;13.604;2024-03-07T07:50:15;9.60;99.90
52024;DHT22;38038;45.922;13.604;2024-03-07T07:55:14;9.80;99.90
52024;DHT22;38038;45.922;13.604;2024-03-07T07:57:43;9.90;99.90
52024;DHT22;38038;45.922;13.604;2024-03-07T08:00:14;9.90;99.90
52024;DHT22;38038;45.922;13.604;2024-03-07T08:02:53;9.90;99.90
52024;DHT22;38038;45.922;13.604;2024-03-07T08:05:24;10.00;99.90
52024;DHT22;38038;45.922;13.604;2024-03-07T08:08:00;10.10;99.90
52024;DHT22;38038;45.922;13.604;2024-03-07T08:10:30;10.20;99.90
52024;DHT22;38038;45.922;13.604;2024-03-07T08:12:56;10.20;99.90
52024;DHT22;38038;45.922;13.604;2024-03-07T08:15:24;10.30;99.90
52024;DHT22;38038;45.922;13.604;2024-03-07T08:17:50;10.30;99.90
52024;DHT22;38038;45.922;13.604;2024-03-07T08:20:19;10.40;99.90
52024;DHT22;38038;45.922;13.604;2024-03-07T08:22:46;10.60;99.90
52024;DHT22;38038;45.922;13.604;2024-03-07T08:25:14;10.70;99.90
52024;DHT22;38038;45.922;13.604;2024-03-07T08:27:45;10.70;99.90
52024;DHT22;38038;45.922;13.604;2024-03-07T08:30:12;10.70;99.90
52024;DHT22;38038;45.922;13.604;2024-03-07T08:32:42;10.80;99.90
52024;DHT22;38038;45.922;13.604;2024-03-07T08:35:09;10.80;99.90
52024;DHT22;38038;45.922;13.604;2024-03-07T08:37:41;11.00;99.90
52024;DHT22;38038;45.922;13.604;2024-03-07T08:40:08;11.10;99.90
52024;DHT22;38038;45.922;13.604;2024-03-07T08:42:37;11.10;99.90
52024;DHT22;38038;45.922;13.604;2024-03-07T08:45:04;11.10;99.90
52024;DHT22;38038;45.922;13.604;2024-03-07T08:47:34;11.20;99.90
52024;DHT22;38038;45.922;13.604;2024-03-07T08:50:00;11.30;99.90
52024;DHT22;38038;45.922;13.604;2024-03-07T08:52:26;11.40;99.90
52024;DHT22;38038;45.922;13.604;2024-03-07T08:54:54;11.40;99.90
52024;DHT22;38038;45.922;13.604;2024-03-07T08:57:20;11.40;99.90
52024;DHT22;38038;45.922;13.604;2024-03-07T08:59:47;11.50;99.90
52024;DHT22;38038;45.922;13.604;2024-03-07T09:02:13;11.50;99.90
52024;DHT22;38038;45.922;13.604;2024-03-07T09:04:39;11.60;99.90
52024;DHT22;38038;45.922;13.604;2024-03-07T09:07:05;11.60;99.90
52024;DHT22;38038;45.922;13.604;2024-03-07T09:09:34;11.70;99.90
52024;DHT22;38038;45.922;13.604;2024-03-07T09:12:01;11.70;99.90
52024;DHT22;38038;45.922;13.604;2024-03-07T09:14:30;11.80;99.90
52024;DHT22;38038;45.922;13.604;2024-03-07T09:16:56;11.80;99.90
52024;DHT22;38038;45.922;13.604;2024-03-07T09:19:23;11.80;99.90
52024;DHT22;38038;45.922;13.604;2024-03-07T09:21:53;11.80;99.90
52024;DHT22;38038;45.922;13.604;2024-03-07T09:24:19;11.80;99.90
52024;DHT22;38038;45.922;13.604;2024-03-07T09:26:49;11.90;99.90
52024;DHT22;38038;45.922;13.604;2024-03-07T09:29:16;11.90;99.90
52024;DHT22;38038;45.922;13.604;2024-03-07T09:31:41;12.10;99.90
52024;DHT22;38038;45.922;13.604;2024-03-07T09:34:07;12.10;99.90
52024;DHT22;38038;45.922;13.604;2024-03-07T09:36:34;12.20;99.90
52024;DHT22;38038;45.922;13.604;2024-03-07T09:38:59;12.30;99.90
52024;DHT22;38038;45.922;13.604;2024-03-07T09:41:26;12.50;99.90
52024;DHT22;38038;45.922;13.604;2024-03-07T09:43:52;12.50;99.90
52024;DHT22;38038;45.922;13.604;2024-03-07T09:46:24;12.50;99.90
52024;DHT22;38038;45.922;13.604;2024-03-07T09:48:50;12.70;99.90
52024;DHT22;38038;45.922;13.604;2024-03-07T09:51:20;12.80;99.90
52024;DHT22;38038;45.922;13.604;2024-03-07T09:53:50;12.70;99.90
52024;DHT22;38038;45.922;13.604;2024-03-07T09:56:22;12.80;99.90
52024;DHT22;38038;45.922;13.604;2024-03-07T09:58:52;12.70;99.60
52024;DHT22;38038;45.922;13.604;2024-03-07T10:01:20;12.70;99.90
52024;DHT22;38038;45.922;13.604;2024-03-07T10:03:48;12.60;99.30
52024;DHT22;38038;45.922;13.604;2024-03-07T10:06:15;12.70;99.90
52024;DHT22;38038;45.922;13.604;2024-03-07T10:08:42;12.70;99.30
52024;DHT22;38038;45.922;13.604;2024-03-07T10:11:09;12.70;99.10
52024;DHT22;38038;45.922;13.604;2024-03-07T10:13:34;12.70;99.30
52024;DHT22;38038;45.922;13.604;2024-03-07T10:16:03;12.50;97.60
52024;DHT22;38038;45.922;13.604;2024-03-07T10:18:31;12.80;98.90
52024;DHT22;38038;45.922;13.604;2024-03-07T10:20:57;13.10;98.40
52024;DHT22;38038;45.922;13.604;2024-03-07T10:23:23;13.60;97.60
52024;DHT22;38038;45.922;13.604;2024-03-07T10:25:50;13.90;97.10
52024;DHT22;38038;45.922;13.604;2024-03-07T10:28:16;13.90;97.50
52024;DHT22;38038;45.922;13.604;2024-03-07T10:30:43;14.00;97.40
52024;DHT22;38038;45.922;13.604;2024-03-07T10:33:13;14.10;97.20
52024;DHT22;38038;45.922;13.604;2024-03-07T10:35:39;14.50;97.10
52024;DHT22;38038;45.922;13.604;2024-03-07T10:38:04;14.60;96.50
52024;DHT22;38038;45.922;13.604;2024-03-07T10:40:37;14.60;96.90
52024;DHT22;38038;45.922;13.604;2024-03-07T10:43:10;14.70;97.40
52024;DHT22;38038;45.922;13.604;2024-03-07T10:45:46;14.60;96.40
52024;DHT22;38038;45.922;13.604;2024-03-07T10:48:13;14.30;96.60
52024;DHT22;38038;45.922;13.604;2024-03-07T10:50:52;14.20;96.70
52024;DHT22;38038;45.922;13.604;2024-03-07T10:53:32;14.30;96.90
52024;DHT22;38038;45.922;13.604;2024-03-07T11:01:31;14.70;97.00
52024;DHT22;38038;45.922;13.604;2024-03-07T11:03:59;14.90;97.10
52024;DHT22;38038;45.922;13.604;2024-03-07T11:06:25;14.80;97.60
52024;DHT22;38038;45.922;13.604;2024-03-07T11:08:52;14.60;98.00
52024;DHT22;38038;45.922;13.604;2024-03-07T11:11:18;14.50;98.10
52024;DHT22;38038;45.922;13.604;2024-03-07T11:13:45;14.40;96.80
52024;DHT22;38038;45.922;13.604;2024-03-07T11:16:12;14.40;96.90
52024;DHT22;38038;45.922;13.604;2024-03-07T11:18:40;14.40;97.40
52024;DHT22;38038;45.922;13.604;2024-03-07T11:21:05;14.20;97.50
52024;DHT22;38038;45.922;13.604;2024-03-07T11:23:33;14.20;98.00
52024;DHT22;38038;45.922;13.604;2024-03-07T11:26:08;14.10;98.20
52024;DHT22;38038;45.922;13.604;2024-03-07T11:28:35;14.50;97.70
52024;DHT22;38038;45.922;13.604;2024-03-07T11:31:25;14.60;97.80
52024;DHT22;38038;45.922;13.604;2024-03-07T11:34:11;14.90;97.20
52024;DHT22;38038;45.922;13.604;2024-03-07T11:36:44;14.60;96.70
52024;DHT22;38038;45.922;13.604;2024-03-07T11:39:39;14.80;97.10
52024;DHT22;38038;45.922;13.604;2024-03-07T11:42:05;14.60;96.70
52024;DHT22;38038;45.922;13.604;2024-03-07T11:44:32;14.50;96.50
52024;DHT22;38038;45.922;13.604;2024-03-07T11:47:01;14.40;98.00
52024;DHT22;38038;45.922;13.604;2024-03-07T11:49:35;14.10;99.90
52024;DHT22;38038;45.922;13.604;2024-03-07T11:52:04;13.60;99.90
52024;DHT22;38038;45.922;13.604;2024-03-07T11:54:38;13.50;99.90
52024;DHT22;38038;45.922;13.604;2024-03-07T11:57:14;13.20;99.90
52024;DHT22;38038;45.922;13.604;2024-03-07T11:59:40;13.20;99.90
52024;DHT22;38038;45.922;13.604;2024-03-07T12:02:14;13.00;99.90
52024;DHT22;38038;45.922;13.604;2024-03-07T12:04:44;12.70;99.90
52024;DHT22;38038;45.922;13.604;2024-03-07T12:07:10;12.10;99.90
52024;DHT22;38038;45.922;13.604;2024-03-07T12:09:43;11.80;99.90
52024;DHT22;38038;45.922;13.604;2024-03-07T12:12:16;11.60;99.90
52024;DHT22;38038;45.922;13.604;2024-03-07T12:14:47;11.50;99.90
52024;DHT22;38038;45.922;13.604;2024-03-07T12:17:16;11.40;99.90
52024;DHT22;38038;45.922;13.604;2024-03-07T12:19:43;11.20;99.90
52024;DHT22;38038;45.922;13.604;2024-03-07T12:22:09;11.10;99.90
52024;DHT22;38038;45.922;13.604;2024-03-07T12:24:41;11.10;99.90
52024;DHT22;38038;45.922;13.604;2024-03-07T12:27:11;11.10;99.90
52024;DHT22;38038;45.922;13.604;2024-03-07T12:29:39;11.10;99.90
52024;DHT22;38038;45.922;13.604;2024-03-07T12:32:09;11.30;99.90
52024;DHT22;38038;45.922;13.604;2024-03-07T12:34:39;11.40;99.90
52024;DHT22;38038;45.922;13.604;2024-03-07T12:37:11;11.20;99.90
52024;DHT22;38038;45.922;13.604;2024-03-07T12:39:37;11.30;99.90
52024;DHT22;38038;45.922;13.604;2024-03-07T12:42:16;11.10;99.90
52024;DHT22;38038;45.922;13.604;2024-03-07T12:44:47;10.90;99.90
52024;DHT22;38038;45.922;13.604;2024-03-07T12:47:17;10.80;99.90
52024;DHT22;38038;45.922;13.604;2024-03-07T12:49:44;10.70;99.90
52024;DHT22;38038;45.922;13.604;2024-03-07T12:52:11;10.60;99.90
52024;DHT22;38038;45.922;13.604;2024-03-07T12:54:39;10.60;99.90
52024;DHT22;38038;45.922;13.604;2024-03-07T12:57:08;10.60;99.90
52024;DHT22;38038;45.922;13.604;2024-03-07T12:59:41;10.40;99.90
52024;DHT22;38038;45.922;13.604;2024-03-07T13:02:11;10.30;99.90
52024;DHT22;38038;45.922;13.604;2024-03-07T13:04:37;10.00;99.90
52024;DHT22;38038;45.922;13.604;2024-03-07T13:07:04;10.00;99.90
52024;DHT22;38038;45.922;13.604;2024-03-07T13:09:31;10.00;99.90
52024;DHT22;38038;45.922;13.604;2024-03-07T13:11:58;9.90;99.90
52024;DHT22;38038;45.922;13.604;2024-03-07T13:14:26;10.00;99.90
52024;DHT22;38038;45.922;13.604;2024-03-07T13:16:56;9.90;99.90
52024;DHT22;38038;45.922;13.604;2024-03-07T13:19:21;9.90;99.90
52024;DHT22;38038;45.922;13.604;2024-03-07T13:21:47;9.90;99.90
52024;DHT22;38038;45.922;13.604;2024-03-07T13:24:17;9.90;99.90
52024;DHT22;38038;45.922;13.604;2024-03-07T13:26:43;9.90;99.90
52024;DHT22;38038;45.922;13.604;2024-03-07T13:29:08;9.70;99.90
52024;DHT22;38038;45.922;13.604;2024-03-07T13:31:35;9.50;99.90
52024;DHT22;38038;45.922;13.604;2024-03-07T13:34:01;9.50;99.90
52024;DHT22;38038;45.922;13.604;2024-03-07T13:36:27;9.40;99.90
52024;DHT22;38038;45.922;13.604;2024-03-07T13:38:53;9.30;99.90
52024;DHT22;38038;45.922;13.604;2024-03-07T13:41:21;9.10;99.90
52024;DHT22;38038;45.922;13.604;2024-03-07T13:43:47;9.10;99.90
52024;DHT22;38038;45.922;13.604;2024-03-07T13:46:14;9.10;99.90
52024;DHT22;38038;45.922;13.604;2024-03-07T13:48:41;9.00;99.90
52024;DHT22;38038;45.922;13.604;2024-03-07T13:51:08;8.90;99.90
52024;DHT22;38038;45.922;13.604;2024-03-07T13:53:34;9.00;99.90
52024;DHT22;38038;45.922;13.604;2024-03-07T14:12:14;9.10;99.90
52024;DHT22;38038;45.922;13.604;2024-03-07T14:21:14;9.00;99.90
52024;DHT22;38038;45.922;13.604;2024-03-07T14:27:15;9.00;99.90
52024;DHT22;38038;45.922;13.604;2024-03-07T14:30:24;9.00;99.90
52024;DHT22;38038;45.922;13.604;2024-03-07T14:32:59;9.10;99.90
52024;DHT22;38038;45.922;13.604;2024-03-07T14:40:50;9.20;99.90
52024;DHT22;38038;45.922;13.604;2024-03-07T14:43:18;9.30;99.90
52024;DHT22;38038;45.922;13.604;2024-03-07T14:45:45;9.30;99.90
52024;DHT22;38038;45.922;13.604;2024-03-07T14:48:12;9.30;99.90
52024;DHT22;38038;45.922;13.604;2024-03-07T14:50:43;9.30;99.90
52024;DHT22;38038;45.922;13.604;2024-03-07T14:53:13;9.30;99.90
52024;DHT22;38038;45.922;13.604;2024-03-07T14:55:42;9.10;99.90
52024;DHT22;38038;45.922;13.604;2024-03-07T14:58:09;9.20;99.90
52024;DHT22;38038;45.922;13.604;2024-03-07T15:00:39;9.20;99.90
52024;DHT22;38038;45.922;13.604;2024-03-07T15:03:15;9.30;99.90
52024;DHT22;38038;45.922;13.604;2024-03-07T15:05:43;9.30;99.90
52024;DHT22;38038;45.922;13.604;2024-03-07T15:08:11;9.30;99.90
52024;DHT22;38038;45.922;13.604;2024-03-07T15:10:40;9.20;99.90
52024;DHT22;38038;45.922;13.604;2024-03-07T15:13:07;9.10;99.90
52024;DHT22;38038;45.922;13.604;2024-03-07T15:15:33;9.10;99.90
52024;DHT22;38038;45.922;13.604;2024-03-07T15:17:59;9.10;99.90
52024;DHT22;38038;45.922;13.604;2024-03-07T15:20:26;9.10;99.90
52024;DHT22;38038;45.922;13.604;2024-03-07T15:22:56;8.90;99.90
52024;DHT22;38038;45.922;13.604;2024-03-07T15:25:23;8.90;99.90
52024;DHT22;38038;45.922;13.604;2024-03-07T15:27:50;8.90;99.90
52024;DHT22;38038;45.922;13.604;2024-03-07T15:30:16;8.80;99.90
52024;DHT22;38038;45.922;13.604;2024-03-07T15:32:43;8.90;99.90
52024;DHT22;38038;45.922;13.604;2024-03-07T15:35:10;8.90;99.90
52024;DHT22;38038;45.922;13.604;2024-03-07T15:37:49;9.00;99.90
52024;DHT22;38038;45.922;13.604;2024-03-07T15:40:15;9.10;99.90
52024;DHT22;38038;45.922;13.604;2024-03-07T15:42:42;9.00;99.90
52024;DHT22;38038;45.922;13.604;2024-03-07T15:45:08;9.00;99.90
52024;DHT22;38038;45.922;13.604;2024-03-07T15:47:55;8.80;99.90
52024;DHT22;38038;45.922;13.604;2024-03-07T15:50:24;8.60;99.90
52024;DHT22;38038;45.922;13.604;2024-03-07T15:52:55;8.60;99.90
52024;DHT22;38038;45.922;13.604;2024-03-07T15:55:21;8.70;99.90
52024;DHT22;38038;45.922;13.604;2024-03-07T15:57:52;8.80;99.90
52024;DHT22;38038;45.922;13.604;2024-03-07T16:00:20;8.70;99.90
52024;DHT22;38038;45.922;13.604;2024-03-07T16:02:59;8.70;99.90
52024;DHT22;38038;45.922;13.604;2024-03-07T16:05:27;8.90;99.90
52024;DHT22;38038;45.922;13.604;2024-03-07T16:07:58;8.80;99.90